Boscastle, United Kingdom
Current Conditions -  °F | °C
As of 1:20 PM on Thursday 27 Nov 2014 (Local Time) from EGHQ Reporting Station
Scattered Clouds Scattered Clouds  
Wind Chill: 10°   Ceiling: Unl
Heat Index: 10°   Visibility: 6mi
Dew Point:   Wind: 14mph
Humidity: 82%   Direction: 140°SE
Pressure: 29.47"   Gusts: NA
Location:  50.68°N, 4.69°W
Report Text: EGHQ 271320Z 14012KT 9999 FEW015 SCT046 10/07 Q0998
Loading
Personal Weather Stations






























Interactive Weather Map New forecast layout! Learn more

10-Day Weather Forecast

Advertisements
Track Severe Weather on mobile